^^
Datos históricos de la estación: Murcia-Puente Tocinos
Diario Informe para Mayo 12, 2022 Unidades:  Ingés    Métrico   Ambas
Diario Semanal Mensual Anual
  Máxima: Mínima: Promedio:
Temperatura: 76.6 °F 57.6 °F 67.3 °F
Punto de rocio: 58.6 °F 49.8 °F 54.3 °F
Humedad: 85% 44.2% 65%
Velocidad viento: 9.7mph 0mph 4.3mph
Racha viento: 17.5mph - -
Viento- - SE
Presión: 30.1 in 30.1 in -
Precipitación: 0 in    
 
 
Tabla de datos para Mayo 12, 2022
Hora Temperatura Punto de rocio Presión Viento Velocidad viento Racha viento Humedad Intensidad lluvia(por hora) Nubes
00:04 63.3 °F 57.7 °F 30.1 in NE 4 mph 6.9 mph 82% 0 in
00:09 63.3 °F 57.7 °F 30.1 in NE 4 mph 5.2 mph 82% 0 in
00:14 63.3 °F 57.7 °F 30.1 in NE 3.7 mph 4.6 mph 82% 0 in
00:19 63.1 °F 57.6 °F 30.1 in NNE 3.6 mph 4.7 mph 82% 0 in
00:24 63 °F 57.4 °F 30.1 in North 3 mph 4.7 mph 82% 0 in
00:29 63 °F 57.6 °F 30.1 in NNE 2.9 mph 4.6 mph 82.5% 0 in
00:34 62.8 °F 57.6 °F 30.1 in NNE 2.9 mph 3.5 mph 83% 0 in
00:39 63 °F 57.6 °F 30.1 in NNE 2.9 mph 3.6 mph 83.2% 0 in
00:44 63 °F 57.9 °F 30.1 in NNE 1.9 mph 3.5 mph 84% 0 in
00:49 63 °F 57.9 °F 30.1 in NNE 1.8 mph 3.6 mph 84% 0 in
00:54 63 °F 57.9 °F 30.1 in NNE 1.8 mph 2.9 mph 84% 0 in
00:59 63 °F 57.9 °F 30.1 in NNE 1.8 mph 2.4 mph 84% 0 in
01:04 63 °F 57.9 °F 30.1 in NNE 1.4 mph 2.9 mph 84% 0 in
01:09 63 °F 57.9 °F 30.1 in NNE 1.4 mph 2.4 mph 84% 0 in
01:14 63 °F 57.9 °F 30.1 in North 1.4 mph 2.9 mph 84% 0 in
01:19 62.8 °F 57.9 °F 30.1 in NO 1.4 mph 3.6 mph 84% 0 in
01:24 62.6 °F 57.7 °F 30.1 in ONO 1.7 mph 4.6 mph 84% 0 in
01:29 62.4 °F 57.4 °F 30.1 in ONO 1.8 mph 3.1 mph 84% 0 in
01:34 62.2 °F 57.4 °F 30.1 in ONO 2 mph 3.6 mph 84.2% 0 in
01:39 62.2 °F 57.7 °F 30.1 in ONO 2 mph 4.6 mph 85% 0 in
01:44 62.2 °F 57.6 °F 30.1 in Oeste 2 mph 4.6 mph 85% 0 in
01:49 62.2 °F 57.7 °F 30.1 in Oeste 2 mph 4.6 mph 85% 0 in
01:54 62.2 °F 57.7 °F 30.1 in Oeste 2 mph 3.5 mph 85% 0 in
01:59 62.2 °F 57.7 °F 30.1 in Oeste 2 mph 2.9 mph 85% 0 in
02:04 62.4 °F 57.7 °F 30.1 in OSO 1.8 mph 4.6 mph 85% 0 in
02:09 62.4 °F 57.7 °F 30.1 in SO 1.8 mph 3.6 mph 84.9% 0 in
02:14 62.2 °F 57.2 °F 30.1 in SSO 1.8 mph 4 mph 84% 0 in
02:19 62.1 °F 56.8 °F 30.1 in SSE 1.8 mph 4.6 mph 83.1% 0 in
02:24 61.9 °F 56.5 °F 30.1 in SE 2.4 mph 4.6 mph 82.3% 0 in
02:29 61.5 °F 55.6 °F 30.1 in SE 2.4 mph 4.6 mph 81.1% 0 in
02:34 61.5 °F 55.6 °F 30.1 in SSE 2.1 mph 2.9 mph 80.9% 0 in
02:39 61.3 °F 55 °F 30.1 in SE 2 mph 4.3 mph 80% 0 in
02:44 61.2 °F 54.7 °F 30.1 in Sur 2 mph 4.6 mph 79% 0 in
02:49 61.2 °F 54.7 °F 30.1 in Sur 2 mph 4.7 mph 79% 0 in
02:54 61.2 °F 54.7 °F 30.1 in SSO 2.8 mph 5.8 mph 79% 0 in
02:59 61.3 °F 54.9 °F 30.1 in SO 2.9 mph 5.9 mph 79% 0 in
03:04 61.3 °F 54.9 °F 30.1 in SO 3.1 mph 5.8 mph 79% 0 in
03:09 61.3 °F 54.3 °F 30.1 in OSO 3.1 mph 4.6 mph 78.1% 0 in
03:14 61.2 °F 54.1 °F 30.1 in OSO 2.5 mph 3.5 mph 78% 0 in
03:19 61.2 °F 54.1 °F 30.1 in OSO 2.4 mph 3.5 mph 78% 0 in
03:24 61.2 °F 54.1 °F 30.1 in SSO 1.9 mph 3.6 mph 78% 0 in
03:29 61.2 °F 54.1 °F 30.1 in SSO 1.8 mph 3.6 mph 78% 0 in
03:34 61.2 °F 54.1 °F 30.1 in Sur 2.4 mph 4.3 mph 78% 0 in
03:39 61 °F 54.1 °F 30.1 in SSE 2.4 mph 4.6 mph 78% 0 in
03:44 61 °F 54.1 °F 30.1 in SSE 2.9 mph 4.6 mph 78% 0 in
03:49 61 °F 54 °F 30.1 in SSE 2.9 mph 2.9 mph 78% 0 in
03:54 60.6 °F 53.8 °F 30.1 in SSE 1.9 mph 2.4 mph 78% 0 in
03:59 60.6 °F 53.4 °F 30.1 in SSE 1.8 mph 2.4 mph 77.1% 0 in
04:04 60.4 °F 53.2 °F 30.1 in SSE 1.4 mph 2.4 mph 77% 0 in
04:09 60.3 °F 53.1 °F 30.1 in SSE 1.4 mph 4.6 mph 77% 0 in
04:14 60.1 °F 52.5 °F 30.1 in SE 1.9 mph 3.5 mph 76.1% 0 in
04:19 59.7 °F 52.5 °F 30.1 in SE 2 mph 2.4 mph 76.9% 0 in
04:24 59.7 °F 52.5 °F 30.1 in SE 1.8 mph 3.5 mph 77% 0 in
04:29 59.5 °F 52.3 °F 30.1 in SE 1.8 mph 3.5 mph 77% 0 in
04:34 59.5 °F 52.2 °F 30.1 in SE 1.8 mph 2.9 mph 77% 0 in
04:39 59.5 °F 52.5 °F 30.1 in SSE 1.8 mph 3.5 mph 77.8% 0 in
04:44 59.5 °F 52.7 °F 30.1 in SSO 2 mph 3.5 mph 78% 0 in
04:49 59.5 °F 52.7 °F 30.1 in SSO 2 mph 3.6 mph 78% 0 in
04:54 59.5 °F 52.7 °F 30.1 in SSE 2 mph 4.6 mph 78% 0 in
04:59 59.5 °F 52.9 °F 30.1 in SSE 2 mph 4.6 mph 78.7% 0 in
05:04 59.5 °F 53.2 °F 30.1 in SSO 2.9 mph 4.6 mph 79.7% 0 in
05:09 59.5 °F 53.4 °F 30.1 in Sur 2.9 mph 4.6 mph 80% 0 in
05:14 59.5 °F 53.6 °F 30.1 in SSE 2.5 mph 3.5 mph 80.9% 0 in
05:19 59.5 °F 53.6 °F 30.1 in SSE 2.4 mph 3.6 mph 81% 0 in
05:24 59.4 °F 53.6 °F 30.1 in SSE 2.1 mph 4.6 mph 81.1% 0 in
05:29 59.4 °F 53.8 °F 30.1 in SSE 2 mph 3.6 mph 82% 0 in
05:34 59.2 °F 53.8 °F 30.1 in SSO 2.4 mph 4.7 mph 82% 0 in
05:39 59.2 °F 53.6 °F 30.1 in SO 2.4 mph 4.6 mph 82% 0 in
05:44 59 °F 53.4 °F 30.1 in SO 2.4 mph 4.6 mph 82% 0 in
05:49 58.8 °F 53.6 °F 30.1 in SO 2.4 mph 6.9 mph 82.9% 0 in
05:54 58.6 °F 53.6 °F 30.1 in SO 3.5 mph 5.8 mph 83% 0 in
05:59 58.6 °F 53.4 °F 30.1 in SSO 3.6 mph 5.2 mph 83% 0 in
06:04 58.6 °F 53.4 °F 30.1 in SSO 3.1 mph 6.9 mph 82.8% 0 in
06:09 58.5 °F 53.1 °F 30.1 in SSO 3.1 mph 5.8 mph 82% 0 in
06:14 58.5 °F 53.1 °F 30.1 in SSO 2.9 mph 4.3 mph 82% 0 in
06:19 58.3 °F 52.9 °F 30.1 in SSO 2.9 mph 4.7 mph 82% 0 in
06:24 58.3 °F 52.9 °F 30.1 in SSO 2.5 mph 5.8 mph 82% 0 in
06:29 58.1 °F 52.7 °F 30.1 in SSO 2.4 mph 5.2 mph 82% 0 in
06:34 58.1 °F 52.5 °F 30.1 in SSO 3 mph 5.9 mph 82% 0 in
06:39 58.1 °F 52.5 °F 30.1 in SSO 3.1 mph 6.2 mph 82% 0 in
06:44 57.9 °F 52.5 °F 30.1 in SSO 3.1 mph 6.9 mph 82% 0 in
06:49 57.9 °F 52.5 °F 30.1 in SSO 3.1 mph 5.9 mph 82% 0 in
06:54 57.9 °F 52.3 °F 30.1 in SO 3.9 mph 5.2 mph 81.8% 0 in
06:59 57.9 °F 52.2 °F 30.1 in SO 4 mph 5.2 mph 81% 0 in
07:04 57.7 °F 52 °F 30.1 in SSO 3.2 mph 6.2 mph 81% 0 in
07:09 57.7 °F 52 °F 30.1 in SSO 3.1 mph 6.9 mph 81% 0 in
07:14 57.7 °F 51.6 °F 30.1 in SO 3.9 mph 8.1 mph 80% 0 in
07:19 57.7 °F 51.4 °F 30.1 in SO 4 mph 8.1 mph 79.4% 0 in
07:24 57.7 °F 51.3 °F 30.1 in SSO 4.6 mph 8.1 mph 79% 0 in
07:29 57.7 °F 51.3 °F 30.1 in SSO 4.7 mph 6.9 mph 79% 0 in
07:34 57.7 °F 51.3 °F 30.1 in SSO 4.1 mph 6.9 mph 79% 0 in
07:39 57.6 °F 51.3 °F 30.1 in SSO 4 mph 8.1 mph 79% 0 in
07:44 57.6 °F 51.1 °F 30.1 in SSO 4.3 mph 8.1 mph 78.7% 0 in
07:49 57.6 °F 50.9 °F 30.1 in SSO 4.3 mph 8.1 mph 78.8% 0 in
07:54 57.6 °F 50.9 °F 30.1 in SSO 5.3 mph 7.4 mph 78.5% 0 in
07:59 57.6 °F 50.9 °F 30.1 in SSO 5.4 mph 6.9 mph 78% 0 in
08:04 57.7 °F 50.9 °F 30.1 in SO 4.3 mph 6.9 mph 78% 0 in
08:09 57.9 °F 50.7 °F 30.1 in SSO 4.3 mph 8.1 mph 77% 0 in
08:14 58.1 °F 50.9 °F 30.1 in SO 4 mph 8.1 mph 77% 0 in
08:19 58.3 °F 51.1 °F 30.1 in SSO 4 mph 6.4 mph 77% 0 in
08:24 58.5 °F 50.9 °F 30.1 in SSO 4 mph 6.9 mph 76.1% 0 in
08:29 58.5 °F 50.9 °F 30.1 in SSO 4 mph 8.5 mph 76% 0 in
08:34 58.6 °F 51.1 °F 30.1 in SSO 5.1 mph 7.6 mph 76% 0 in
08:39 58.8 °F 50.9 °F 30.1 in SSO 5.2 mph 8.1 mph 75% 0 in
08:44 59 °F 50.9 °F 30.1 in SSO 4.7 mph 8.1 mph 74.3% 0 in
08:49 59.2 °F 50.9 °F 30.1 in SSO 4.7 mph 8.1 mph 74% 0 in
08:54 59.4 °F 51.1 °F 30.1 in Sur 5.2 mph 8.1 mph 74% 0 in
08:59 59.5 °F 51.1 °F 30.1 in Sur 5.2 mph 8.1 mph 73.3% 0 in
09:04 59.9 °F 51.3 °F 30.1 in SSO 4.3 mph 6.2 mph 73% 0 in
09:09 60.3 °F 51.3 °F 30.1 in SSO 4.3 mph 6.9 mph 72.2% 0 in
09:14 60.4 °F 51.3 °F 30.1 in SSO 4.7 mph 6.9 mph 71.7% 0 in
09:19 60.6 °F 51.1 °F 30.1 in SO 4.7 mph 7.4 mph 71% 0 in
09:24 60.8 °F 51.3 °F 30.1 in SSO 4.1 mph 7.4 mph 70.9% 0 in
09:29 61.2 °F 51.4 °F 30.1 in SO 4 mph 8.1 mph 70.3% 0 in
09:34 61.3 °F 51.4 °F 30.1 in SSO 4.3 mph 8.1 mph 70% 0 in
09:39 61.5 °F 51.4 °F 30.1 in SSO 4.3 mph 7.4 mph 69.7% 0 in
09:44 61.5 °F 51.4 °F 30.1 in SSO 5.1 mph 7.4 mph 69.6% 0 in
09:49 61.7 °F 51.4 °F 30.1 in SSO 5.2 mph 8.5 mph 69% 0 in
09:54 62.1 °F 51.4 °F 30.1 in SSO 5.3 mph 8.1 mph 68.4% 0 in
09:59 62.2 °F 51.6 °F 30.1 in SSO 5.4 mph 6.9 mph 68% 0 in
10:04 62.8 °F 51.6 °F 30.1 in Sur 4.7 mph 6.9 mph 67.1% 0 in
10:09 63 °F 51.8 °F 30.1 in SSO 4.7 mph 8.1 mph 67% 0 in
10:14 63.3 °F 51.8 °F 30.1 in Sur 4.7 mph 6.9 mph 66.1% 0 in
10:19 63.9 °F 52 °F 30.1 in Sur 4.7 mph 8.5 mph 65.4% 0 in
10:24 64.2 °F 51.8 °F 30.1 in OSO 4.3 mph 8.1 mph 63.9% 0 in
10:29 64.8 °F 51.8 °F 30.1 in Oeste 4.3 mph 6.9 mph 62.7% 0 in
10:34 65.1 °F 51.8 °F 30.1 in SO 4 mph 5.8 mph 62% 0 in
10:39 65.7 °F 52 °F 30.1 in SO 4 mph 8.1 mph 61.2% 0 in
10:44 66.4 °F 52 °F 30.1 in Oeste 3.2 mph 5.8 mph 59.9% 0 in
10:49 66.7 °F 51.3 °F 30.1 in SO 3.1 mph 4.6 mph 57.6% 0 in
10:54 67.1 °F 51.1 °F 30.1 in SE 2.9 mph 4.7 mph 56.7% 0 in
10:59 67.8 °F 51.3 °F 30.1 in NO 2.9 mph 5.2 mph 55.1% 0 in
11:04 68.4 °F 50.9 °F 30.1 in North 2.4 mph 6.9 mph 53.5% 0 in
11:09 68.9 °F 50.7 °F 30.1 in NNE 2.4 mph 8.1 mph 52.2% 0 in
11:14 69.3 °F 50.7 °F 30.1 in NE 3.9 mph 5.9 mph 51.8% 0 in
11:19 69.6 °F 50.7 °F 30.1 in ENE 4 mph 7.4 mph 51% 0 in
11:24 70.2 °F 50.2 °F 30.1 in NNE 3.7 mph 7.4 mph 49.5% 0 in
11:29 70.2 °F 50.2 °F 30.1 in North 3.6 mph 5.9 mph 49% 0 in
11:34 70.3 °F 50.2 °F 30.1 in ONO 3 mph 5.8 mph 48.6% 0 in
11:39 70.3 °F 49.8 °F 30.1 in Oeste 2.9 mph 5.2 mph 48.4% 0 in
11:44 70.5 °F 50.4 °F 30.1 in NE 2.9 mph 8.1 mph 48.8% 0 in
11:49 71.1 °F 49.8 °F 30.1 in NE 2.9 mph 6.9 mph 47.2% 0 in
11:54 71.4 °F 50 °F 30.1 in NNE 3.5 mph 7.4 mph 46.9% 0 in
11:59 72 °F 50.2 °F 30.1 in ENE 3.6 mph 8.1 mph 46.3% 0 in
12:04 72 °F 50.2 °F 30.1 in NNO 3.1 mph 8.1 mph 46.1% 0 in
12:09 72.3 °F 50.5 °F 30.1 in NE 3.1 mph 12.7 mph 46.2% 0 in
12:14 72.1 °F 50.9 °F 30.1 in NE 4.5 mph 9.2 mph 47% 0 in
12:19 72.1 °F 51.3 °F 30.1 in NE 4.7 mph 12.7 mph 47.8% 0 in
12:24 72.1 °F 51.3 °F 30.1 in NE 6 mph 12.7 mph 47.8% 0 in
12:29 72.3 °F 51.8 °F 30.1 in NNE 6.2 mph 11.8 mph 48.5% 0 in
12:34 72.7 °F 52.3 °F 30.1 in NNE 6 mph 11.5 mph 49% 0 in
12:39 72.9 °F 52.5 °F 30.1 in NE 5.9 mph 12.7 mph 48.8% 0 in
12:44 72.9 °F 52.9 °F 30.1 in NE 6.2 mph 10.7 mph 49.4% 0 in
12:49 73 °F 53.2 °F 30.1 in ENE 6.2 mph 10.4 mph 49.7% 0 in
12:54 73.6 °F 53.2 °F 30.1 in NNE 5.5 mph 10.7 mph 49.1% 0 in
12:59 73.9 °F 53.6 °F 30.1 in NNE 5.4 mph 10.4 mph 49.3% 0 in
13:04 74.3 °F 53.4 °F 30.1 in NNE 4.3 mph 11.5 mph 48.1% 0 in
13:09 74.7 °F 54 °F 30.1 in NE 4.3 mph 8.5 mph 48.5% 0 in
13:14 74.7 °F 53.6 °F 30.1 in NE 4.7 mph 12.7 mph 47.8% 0 in
13:19 74.8 °F 53.2 °F 30.1 in NE 4.7 mph 13.7 mph 47% 0 in
13:24 74.8 °F 53.8 °F 30.1 in NE 7.1 mph 13.8 mph 48% 0 in
13:29 75 °F 53.8 °F 30.1 in ENE 7.4 mph 12.7 mph 47.9% 0 in
13:34 75.4 °F 53.6 °F 30.1 in NE 6.1 mph 13 mph 46.8% 0 in
13:39 75.6 °F 53.8 °F 30.1 in NE 5.9 mph 11.5 mph 46.9% 0 in
13:44 75.7 °F 53.1 °F 30.1 in Este 6.2 mph 17.5 mph 45.3% 0 in
13:49 75.7 °F 53.1 °F 30.1 in ENE 6.2 mph 11.8 mph 45.4% 0 in
13:54 75.9 °F 53.2 °F 30.1 in ENE 6.4 mph 12.5 mph 45.2% 0 in
13:59 76.3 °F 53.4 °F 30.1 in Este 6.4 mph 12.7 mph 45.2% 0 in
14:04 76.3 °F 53.2 °F 30.1 in Este 6.4 mph 10.4 mph 44.9% 0 in
14:09 76.1 °F 52.7 °F 30.1 in NE 6.4 mph 14 mph 44.2% 0 in
14:14 75.9 °F 53.2 °F 30.1 in NE 7.5 mph 13.8 mph 45.2% 0 in
14:19 76.3 °F 52.9 °F 30.1 in NE 7.6 mph 16.3 mph 44.5% 0 in
14:24 75.9 °F 52.9 °F 30.1 in ENE 7.4 mph 13 mph 44.8% 0 in
14:29 75.9 °F 53.4 °F 30.1 in NE 7.4 mph 13.7 mph 45.5% 0 in
14:34 76.3 °F 53.4 °F 30.1 in ENE 7 mph 15.9 mph 45.1% 0 in
14:39 76.1 °F 53.1 °F 30.1 in NE 6.9 mph 16.1 mph 45% 0 in
14:44 76.1 °F 53.4 °F 30.1 in NE 7.5 mph 16.1 mph 45.4% 0 in
14:49 75.9 °F 53.6 °F 30.1 in ENE 7.6 mph 17.5 mph 45.9% 0 in
14:54 75.9 °F 53.1 °F 30.1 in ENE 8.4 mph 16.1 mph 45.1% 0 in
14:59 75.9 °F 52.7 °F 30.1 in ENE 8.5 mph 13.8 mph 44.6% 0 in
15:04 76.1 °F 53.2 °F 30.1 in ENE 7.6 mph 12.7 mph 45% 0 in
15:09 76.1 °F 53.2 °F 30.1 in NE 7.6 mph 17.3 mph 45% 0 in
15:14 76.1 °F 53.2 °F 30.1 in Este 8 mph 16.1 mph 45% 0 in
15:19 76.1 °F 53.6 °F 30.1 in ENE 8.1 mph 15 mph 45.5% 0 in
15:24 76.3 °F 53.2 °F 30.1 in ENE 7.5 mph 15 mph 44.8% 0 in
15:29 76.3 °F 53.4 °F 30.1 in ENE 7.4 mph 15 mph 44.9% 0 in
15:34 76.5 °F 53.1 °F 30.1 in ENE 7.4 mph 14.7 mph 44.3% 0 in
15:39 76.5 °F 53.1 °F 30.1 in ENE 7.4 mph 16.3 mph 44.2% 0 in
15:44 76.3 °F 53.1 °F 30.1 in ENE 7.6 mph 16.1 mph 44.4% 0 in
15:49 76.5 °F 53.6 °F 30.1 in ENE 7.6 mph 15 mph 45.1% 0 in
15:54 76.1 °F 53.8 °F 30.1 in ENE 7.6 mph 12.7 mph 45.8% 0 in
15:59 76.5 °F 53.8 °F 30.1 in ENE 7.6 mph 11.5 mph 45.5% 0 in
16:04 76.6 °F 53.6 °F 30.1 in ENE 6 mph 13 mph 45% 0 in
16:09 76.6 °F 53.6 °F 30.1 in NE 5.9 mph 14 mph 45% 0 in
16:14 76.5 °F 53.6 °F 30.1 in ENE 6.8 mph 15 mph 45.2% 0 in
16:19 76.3 °F 54.1 °F 30.1 in Este 6.9 mph 13 mph 46.3% 0 in
16:24 76.3 °F 54.5 °F 30.1 in ENE 7.5 mph 13.8 mph 46.9% 0 in
16:29 76.1 °F 54.3 °F 30.1 in NE 7.6 mph 13 mph 46.9% 0 in
16:34 76.1 °F 54.1 °F 30.1 in NE 7.6 mph 14 mph 46.6% 0 in
16:39 75.9 °F 54.9 °F 30.1 in NE 7.6 mph 12.7 mph 48.1% 0 in
16:44 76.1 °F 54.5 °F 30.1 in NE 7.6 mph 15.9 mph 47.2% 0 in
16:49 75.9 °F 53.8 °F 30.1 in NE 7.6 mph 16.3 mph 46.2% 0 in
16:54 75.6 °F 54 °F 30.1 in NE 9.1 mph 15 mph 46.9% 0 in
16:59 75.6 °F 54.1 °F 30.1 in NE 9.2 mph 15 mph 47.7% 0 in
17:04 75.7 °F 54.7 °F 30.1 in NE 9.7 mph 11.8 mph 48.1% 0 in
17:09 75.9 °F 54.9 °F 30.1 in NE 9.7 mph 16.1 mph 47.9% 0 in
17:14 75.9 °F 54.3 °F 30.1 in ENE 7.6 mph 15 mph 47.2% 0 in
17:19 75.7 °F 54.5 °F 30.1 in NE 7.4 mph 15.2 mph 47.8% 0 in
17:24 75.7 °F 54.3 °F 30.1 in NE 8.4 mph 16.1 mph 47.4% 0 in
17:29 75.6 °F 54.5 °F 30.1 in ENE 8.5 mph 13.8 mph 47.8% 0 in
17:34 75.7 °F 54.7 °F 30.1 in NE 8.1 mph 14 mph 48.2% 0 in
17:39 75.7 °F 54.7 °F 30.1 in NE 8.1 mph 11.5 mph 48% 0 in
17:44 76.3 °F 54.9 °F 30.1 in ENE 6.4 mph 15.2 mph 47.8% 0 in
17:49 75.7 °F 54.5 °F 30.1 in NE 6.2 mph 12.7 mph 47.7% 0 in
17:54 75.7 °F 54.7 °F 30.1 in ENE 6.8 mph 13 mph 48% 0 in
17:59 75.6 °F 55 °F 30.1 in ENE 6.9 mph 13 mph 48.9% 0 in
18:04 75.6 °F 55 °F 30.1 in NE 6.4 mph 13.8 mph 48.8% 0 in
18:08 75.6 °F 54.9 °F 30.1 in ENE 6.4 mph 11.5 mph 48.8% 0 in
18:14 75.6 °F 55.2 °F 30.1 in ENE 5.5 mph 9.7 mph 49.4% 0 in
18:19 75.6 °F 55 °F 30.1 in ENE 5.4 mph 11.5 mph 49% 0 in
18:24 75.6 °F 55 °F 30.1 in NE 5.2 mph 10.4 mph 49% 0 in
18:29 75.4 °F 55.2 °F 30.1 in ENE 5.2 mph 10.4 mph 49.5% 0 in
18:34 75.2 °F 55.6 °F 30.1 in ENE 6.1 mph 12.7 mph 50.5% 0 in
18:39 74.8 °F 55.9 °F 30.1 in NE 6.2 mph 12.7 mph 51.7% 0 in
18:44 74.7 °F 56.1 °F 30.1 in NE 6.8 mph 10.4 mph 52.6% 0 in
18:49 74.5 °F 56.3 °F 30.1 in ENE 6.9 mph 14 mph 53.4% 0 in
18:54 74.1 °F 56.7 °F 30.1 in ENE 6.5 mph 15 mph 54.4% 0 in
18:59 73.8 °F 57 °F 30.1 in ENE 6.4 mph 11.8 mph 55.5% 0 in
19:04 73.6 °F 57.2 °F 30.1 in ENE 6.9 mph 14 mph 56.6% 0 in
19:09 73.4 °F 57.4 °F 30.1 in ENE 6.9 mph 12.7 mph 57.5% 0 in
19:14 73.2 °F 57.6 °F 30.1 in NE 6.5 mph 11.5 mph 57.9% 0 in
19:19 73.2 °F 57.9 °F 30.1 in NE 6.4 mph 13.8 mph 58.7% 0 in
19:24 73.2 °F 57.9 °F 30.1 in NE 6.4 mph 13 mph 59% 0 in
19:29 73 °F 58.1 °F 30.1 in NE 6.4 mph 13 mph 59.4% 0 in
19:34 72.7 °F 57.9 °F 30.1 in NE 6.8 mph 15 mph 59.7% 0 in
19:39 72.3 °F 57.7 °F 30.1 in ENE 6.9 mph 13.8 mph 60.1% 0 in
19:44 72.1 °F 57.7 °F 30.1 in ENE 6.5 mph 9.7 mph 60.4% 0 in
19:49 72.1 °F 57.9 °F 30.1 in NE 6.4 mph 9.2 mph 61% 0 in
19:54 72.1 °F 57.9 °F 30.1 in NE 5.3 mph 6.9 mph 61% 0 in
19:59 72 °F 57.7 °F 30.1 in ENE 5.2 mph 6.9 mph 61% 0 in
20:04 72 °F 57.7 °F 30.1 in ENE 3.7 mph 8.7 mph 61% 0 in
20:09 72 °F 57.7 °F 30.1 in Este 3.6 mph 6.2 mph 61% 0 in
20:14 71.8 °F 57.9 °F 30.1 in Este 3.2 mph 4.7 mph 61.8% 0 in
20:19 71.8 °F 57.6 °F 30.1 in ENE 3.1 mph 6.2 mph 61.2% 0 in
20:24 71.4 °F 57.4 °F 30.1 in ENE 2.9 mph 6.2 mph 61.1% 0 in
20:29 71.2 °F 57.6 °F 30.1 in ENE 2.9 mph 8.5 mph 62% 0 in
20:34 71.1 °F 57.4 °F 30.1 in ENE 3.9 mph 8.5 mph 62% 0 in
20:39 70.7 °F 56.7 °F 30.1 in NE 4 mph 8.1 mph 61% 0 in
20:44 70.3 °F 56.5 °F 30.1 in NE 4.3 mph 8.1 mph 61.3% 0 in
20:49 70.3 °F 56.7 °F 30.1 in NE 4.3 mph 6.9 mph 62% 0 in
20:54 70.2 °F 57 °F 30.1 in ENE 4 mph 5.9 mph 62.9% 0 in
20:59 70.2 °F 57 °F 30.1 in NE 4 mph 5.8 mph 63% 0 in
21:04 70.2 °F 57.2 °F 30.1 in ENE 2.9 mph 8.5 mph 63.8% 0 in
21:09 70 °F 57.2 °F 30.1 in NE 2.9 mph 8.1 mph 64% 0 in
21:14 69.6 °F 57.2 °F 30.1 in NE 3.1 mph 5.9 mph 64.4% 0 in
21:19 69.4 °F 57.2 °F 30.1 in ENE 3.1 mph 6.2 mph 65% 0 in
21:24 69.4 °F 57.2 °F 30.1 in NE 3.9 mph 7.4 mph 65.1% 0 in
21:29 69.3 °F 57.4 °F 30.1 in NE 4 mph 6.9 mph 66% 0 in
21:34 69.1 °F 57.2 °F 30.1 in NE 3.2 mph 8.1 mph 66% 0 in
21:39 68.9 °F 57.4 °F 30.1 in NE 3.1 mph 7.4 mph 66.8% 0 in
21:44 68.7 °F 57.4 °F 30.1 in NE 3.9 mph 6.9 mph 67% 0 in
21:49 68.5 °F 57 °F 30.1 in NE 4 mph 5.8 mph 67% 0 in
21:54 68.5 °F 57.6 °F 30.1 in ENE 3.2 mph 5.9 mph 67.9% 0 in
21:59 68.4 °F 57.4 °F 30.1 in ENE 3.1 mph 5.8 mph 68% 0 in
22:04 68.4 °F 57.4 °F 30.1 in NE 2.9 mph 5.9 mph 68% 0 in
22:09 68.2 °F 57.2 °F 30.1 in ENE 2.9 mph 5.9 mph 68% 0 in
22:14 68.2 °F 57.2 °F 30.1 in NE 3.1 mph 5.8 mph 68.3% 0 in
22:19 68 °F 57.4 °F 30.1 in NE 3.1 mph 5.9 mph 69% 0 in
22:24 67.8 °F 57.4 °F 30.1 in ENE 3.1 mph 5.9 mph 69% 0 in
22:29 67.6 °F 57.4 °F 30.1 in NE 3.1 mph 6.2 mph 69.5% 0 in
22:34 67.6 °F 57.6 °F 30.1 in NE 3.1 mph 5.8 mph 70% 0 in
22:39 67.5 °F 57.4 °F 30.1 in NE 3.1 mph 5.9 mph 70% 0 in
22:44 67.5 °F 57.6 °F 30.1 in NNE 2.9 mph 4.7 mph 70.7% 0 in
22:49 67.5 °F 57.7 °F 30.1 in NE 2.9 mph 4.7 mph 71% 0 in
22:54 67.3 °F 57.6 °F 30.1 in NE 2.9 mph 5.8 mph 71% 0 in
22:59 67.3 °F 57.9 °F 30.1 in NE 2.9 mph 5.2 mph 72% 0 in
23:04 66.9 °F 57.7 °F 30.1 in NE 3.5 mph 4.6 mph 72.1% 0 in
23:09 66.9 °F 57.9 °F 30.1 in NE 3.6 mph 3.5 mph 73% 0 in
23:14 66.9 °F 57.9 °F 30.1 in NE 2 mph 2.4 mph 73% 0 in
23:19 66.7 °F 57.9 °F 30.1 in NE 1.8 mph 1.4 mph 73.2% 0 in
23:24 66.7 °F 58.3 °F 30.1 in NE 0.2 mph 3.5 mph 74% 0 in
23:29 66.7 °F 58.3 °F 30.1 in Calm   3.5 mph 74% 0 in
23:34 66.7 °F 58.5 °F 30.1 in NNO 1.6 mph 4.6 mph 74.8% 0 in
23:39 66.6 °F 58.5 °F 30.1 in NO 1.8 mph 4.6 mph 75% 0 in
23:44 66.6 °F 58.3 °F 30.1 in NO 2 mph 3.5 mph 75.2% 0 in
23:49 66.4 °F 58.6 °F 30.1 in NO 2 mph 3.6 mph 76% 0 in
23:54 66.4 °F 58.5 °F 30.1 in NNO 1.8 mph 3.6 mph 76% 0 in
23:59 66 °F 58.3 °F 30.1 in ONO 1.8 mph 4.7 mph 76% 0 in
Murcia-Puente Tocinos, Espa?a
Compliments of Weather Underground - 3 mb

La estación de MeteoMurcia.com, publica sus datos en los siguientes proyectos:

Weather Underground PWS IMURCIAP2 Meteoclimatic www.awekas.at

W3Counter
Web Analytics